Time;durP1;ratioP1;P1;durP2;ratioP2;P2;SDS_P1;SDS_P2;PMS_P1;PMS_P2;Temp;Humidity;BMP_temperature;BMP_pressure;BME280_temperature;BME280_humidity;BME280_pressure;Samples;Min_cycle;Max_cycle;Signal;HPM_P1;HPM_P2
2021/12/20 00:03:18;;;;;;;5.97;0.90;;;22.70;76.40;;;;;;7839044;28;20709;-64
2021/12/20 00:07:03;;;;;;;2.97;1.23;;;22.60;76.40;;;;;;7838300;28;20231;-63
2021/12/20 00:10:49;;;;;;;1.80;0.80;;;22.50;76.40;;;;;;7838191;28;20225;-64
2021/12/20 00:14:34;;;;;;;2.20;1.10;;;22.50;76.50;;;;;;7838901;28;20537;-64
2021/12/20 00:18:20;;;;;;;4.45;1.20;;;22.40;76.50;;;;;;7838182;28;20209;-64
2021/12/20 00:22:05;;;;;;;2.60;0.90;;;22.40;76.50;;;;;;7839145;28;20180;-64
2021/12/20 00:25:50;;;;;;;3.88;1.10;;;22.40;76.50;;;;;;7838832;28;20276;-64
2021/12/20 00:29:36;;;;;;;2.63;0.90;;;22.40;76.30;;;;;;7837873;28;20202;-64
2021/12/20 00:33:22;;;;;;;3.17;1.15;;;22.40;76.20;;;;;;7838482;28;20239;-64
2021/12/20 00:40:20;;;;;;;2.55;1.00;;;22.30;76.20;;;;;;7838339;28;20178;-64
2021/12/20 00:41:14;;;;;;;2.90;1.13;;;22.30;76.10;;;;;;7837866;28;20240;-64
2021/12/20 00:45:00;;;;;;;1.98;1.00;;;22.20;76.10;;;;;;7838058;28;20202;-64
2021/12/20 00:48:45;;;;;;;2.85;1.00;;;22.20;76.10;;;;;;7837359;28;20951;-64
2021/12/20 00:52:31;;;;;;;2.50;1.00;;;22.10;76.10;;;;;;7838024;28;20186;-64
2021/12/20 00:56:16;;;;;;;2.72;0.80;;;22.10;76.20;;;;;;7838071;28;20178;-64
2021/12/20 01:00:07;;;;;;;2.20;1.10;;;22.00;76.30;;;;;;7837063;28;20233;-64
2021/12/20 01:03:53;;;;;;;2.85;0.95;;;22.00;76.40;;;;;;7837730;28;20670;-66
2021/12/20 01:07:39;;;;;;;1.90;0.75;;;21.90;76.40;;;;;;7837095;28;20536;-64
2021/12/20 01:11:27;;;;;;;1.25;0.60;;;21.90;76.40;;;;;;7837657;28;20201;-64
2021/12/20 01:15:20;;;;;;;2.97;0.95;;;21.90;76.40;;;;;;7837599;28;20257;-64
2021/12/20 01:19:05;;;;;;;3.22;0.77;;;21.90;76.20;;;;;;7843179;28;20197;-64
2021/12/20 01:22:51;;;;;;;1.45;0.73;;;21.90;76.20;;;;;;7843827;28;20685;-64
2021/12/20 01:26:37;;;;;;;3.08;0.80;;;21.80;76.20;;;;;;7843663;28;20210;-64
2021/12/20 01:30:25;;;;;;;2.20;0.90;;;21.80;76.20;;;;;;7842782;28;20221;-64
2021/12/20 01:34:10;;;;;;;2.42;1.10;;;21.80;76.20;;;;;;7843572;28;20536;-64
2021/12/20 01:37:56;;;;;;;2.53;0.90;;;21.70;76.10;;;;;;7842730;28;20197;-65
2021/12/20 01:41:44;;;;;;;2.75;0.90;;;21.70;76.00;;;;;;7843249;28;20698;-65
2021/12/20 01:45:29;;;;;;;2.78;0.60;;;21.70;76.00;;;;;;7842172;28;20213;-65
2021/12/20 01:49:17;;;;;;;2.05;0.85;;;21.70;76.00;;;;;;7842285;28;20197;-64
2021/12/20 01:53:02;;;;;;;2.35;0.70;;;21.70;76.00;;;;;;7843129;28;20265;-65
2021/12/20 01:56:48;;;;;;;1.73;0.63;;;21.70;76.00;;;;;;7843026;28;20240;-64
2021/12/20 02:01:18;;;;;;;2.53;0.80;;;21.70;75.90;;;;;;7842117;28;20198;-64
2021/12/20 02:04:47;;;;;;;1.15;0.85;;;21.70;75.80;;;;;;7842511;28;20220;-65
2021/12/20 02:08:32;;;;;;;1.67;0.77;;;21.70;75.80;;;;;;7841786;28;20221;-65
2021/12/20 02:12:18;;;;;;;1.77;0.80;;;21.60;75.80;;;;;;7842569;28;20261;-65
2021/12/20 02:16:03;;;;;;;2.20;0.90;;;21.60;75.80;;;;;;7842374;28;20177;-65
2021/12/20 02:19:49;;;;;;;1.77;0.73;;;21.60;75.70;;;;;;7841557;28;20710;-64
2021/12/20 02:23:34;;;;;;;3.28;0.90;;;21.50;75.70;;;;;;7842195;28;20966;-64
2021/12/20 02:27:22;;;;;;;3.15;0.70;;;21.50;75.80;;;;;;7841358;28;20675;-64
2021/12/20 02:39:03;;;;;;;3.53;0.70;;;21.50;75.70;;;;;;7841193;28;20201;-65
2021/12/20 02:42:51;;;;;;;1.65;0.70;;;21.40;75.60;;;;;;7841449;28;20181;-65
2021/12/20 02:50:26;;;;;;;1.38;0.60;;;21.40;76.40;;;;;;7840607;28;20263;-65
2021/12/20 02:54:13;;;;;;;5.03;0.70;;;21.40;75.50;;;;;;7841287;28;20200;-65
2021/12/20 02:57:58;;;;;;;2.58;0.70;;;21.40;75.40;;;;;;7840420;28;20188;-65
2021/12/20 03:01:49;;;;;;;5.18;0.73;;;21.40;75.50;;;;;;7841365;28;20190;-65
2021/12/20 03:05:36;;;;;;;3.30;0.82;;;21.30;75.50;;;;;;7840787;28;20718;-65
2021/12/20 03:09:29;;;;;;;2.90;0.80;;;21.30;75.50;;;;;;7840490;28;20198;-65
2021/12/20 03:13:14;;;;;;;1.95;0.90;;;21.30;75.50;;;;;;7840779;28;20174;-66
2021/12/20 03:17:00;;;;;;;0.95;0.60;;;21.30;75.50;;;;;;7840574;28;20207;-65
2021/12/20 03:20:46;;;;;;;2.33;0.80;;;21.30;75.50;;;;;;7839647;28;20583;-65
2021/12/20 03:24:31;;;;;;;2.13;0.77;;;21.30;75.50;;;;;;7840295;28;20213;-65
2021/12/20 03:28:17;;;;;;;4.20;1.00;;;21.20;75.40;;;;;;7839340;28;20228;-65
2021/12/20 03:32:03;;;;;;;1.17;0.80;;;21.20;75.50;;;;;;7840164;28;20218;-65
2021/12/20 03:35:48;;;;;;;2.63;0.80;;;21.20;75.40;;;;;;7839972;28;20181;-65
2021/12/20 03:39:34;;;;;;;1.42;0.57;;;21.20;75.40;;;;;;7839134;28;20190;-65
2021/12/20 03:43:19;;;;;;;1.60;0.73;;;21.10;75.40;;;;;;7839888;28;20180;-65
2021/12/20 03:47:05;;;;;;;1.80;0.93;;;21.10;75.40;;;;;;7839630;28;20178;-65
2021/12/20 03:50:51;;;;;;;0.68;0.60;;;21.10;75.40;;;;;;7838729;28;20256;-65
2021/12/20 03:54:38;;;;;;;1.40;0.65;;;21.10;75.50;;;;;;7839391;28;20228;-65
2021/12/20 03:58:26;;;;;;;2.35;0.73;;;21.00;75.50;;;;;;7838488;28;20174;-65
2021/12/20 04:02:16;;;;;;;1.55;0.70;;;21.10;75.40;;;;;;7839434;28;20216;-65
2021/12/20 04:06:03;;;;;;;4.30;0.90;;;21.00;75.50;;;;;;7839179;28;20701;-65
2021/12/20 04:09:49;;;;;;;2.38;0.90;;;21.00;75.40;;;;;;7838313;28;20280;-64
2021/12/20 04:13:35;;;;;;;1.20;0.60;;;21.00;75.40;;;;;;7838852;28;20185;-65
2021/12/20 04:17:20;;;;;;;1.02;0.60;;;21.00;75.50;;;;;;7838823;28;20194;-65
2021/12/20 04:21:06;;;;;;;2.05;0.80;;;20.90;75.40;;;;;;7837952;28;20229;-65
2021/12/20 04:24:51;;;;;;;2.08;1.05;;;20.90;75.50;;;;;;7838569;28;20233;-65
2021/12/20 04:28:37;;;;;;;1.10;0.60;;;20.80;75.40;;;;;;7837670;28;20233;-65
2021/12/20 04:32:22;;;;;;;1.52;0.70;;;20.90;75.40;;;;;;7838429;28;20253;-65
2021/12/20 04:36:08;;;;;;;1.63;0.60;;;20.80;75.20;;;;;;7838423;28;20248;-65
2021/12/20 04:39:53;;;;;;;1.10;0.75;;;20.80;75.30;;;;;;7837592;28;20702;-65
2021/12/20 04:43:39;;;;;;;0.85;0.70;;;20.80;75.40;;;;;;7838119;28;20197;-65
2021/12/20 04:47:24;;;;;;;2.03;0.70;;;20.80;75.50;;;;;;7837986;28;20182;-65
2021/12/20 04:51:10;;;;;;;1.63;0.70;;;20.80;75.30;;;;;;7836953;28;20197;-65
2021/12/20 04:54:55;;;;;;;3.42;1.00;;;20.80;75.20;;;;;;7838022;28;20655;-65
2021/12/20 04:58:41;;;;;;;1.55;0.60;;;20.80;75.20;;;;;;7837319;28;20197;-65
2021/12/20 05:02:26;;;;;;;1.73;0.63;;;20.70;75.20;;;;;;7838054;28;20691;-65
2021/12/20 05:06:12;;;;;;;2.88;0.82;;;20.70;75.20;;;;;;7837976;28;20240;-65
2021/12/20 05:10:01;;;;;;;1.52;0.90;;;20.70;75.30;;;;;;7837125;28;20204;-65
2021/12/20 05:13:47;;;;;;;1.15;0.60;;;20.70;75.20;;;;;;7837976;28;20749;-65
2021/12/20 05:17:32;;;;;;;1.98;0.60;;;20.60;75.10;;;;;;7837564;28;20614;-65
2021/12/20 05:21:18;;;;;;;1.60;0.65;;;20.70;75.10;;;;;;7838085;28;20198;-65
2021/12/20 05:25:04;;;;;;;1.40;0.57;;;20.60;75.10;;;;;;7837775;28;20202;-65
2021/12/20 05:28:49;;;;;;;1.70;0.70;;;20.60;75.10;;;;;;7837288;28;20213;-64
2021/12/20 05:32:36;;;;;;;1.60;0.60;;;20.50;75.00;;;;;;7837623;28;20174;-64
2021/12/20 05:36:21;;;;;;;1.17;0.70;;;20.60;75.10;;;;;;7831161;28;20187;-65
2021/12/20 05:40:10;;;;;;;2.15;0.88;;;20.50;74.90;;;;;;7805638;28;20264;-64
2021/12/20 05:43:55;;;;;;;1.30;0.63;;;20.50;75.00;;;;;;7806071;28;20213;-65
2021/12/20 05:47:41;;;;;;;1.55;0.70;;;20.50;75.00;;;;;;7804391;28;20660;-65
2021/12/20 05:51:28;;;;;;;1.30;0.50;;;20.40;74.90;;;;;;7806312;28;20209;-64
2021/12/20 05:55:14;;;;;;;2.55;0.80;;;20.50;74.90;;;;;;7820508;28;20202;-63
2021/12/20 05:58:59;;;;;;;6.50;1.02;;;20.50;74.80;;;;;;7836085;28;20222;-64
2021/12/20 06:02:47;;;;;;;5.88;1.00;;;20.40;75.20;;;;;;7837227;28;20178;-64
2021/12/20 06:06:33;;;;;;;5.15;0.90;;;20.40;75.10;;;;;;7842461;28;20701;-64
2021/12/20 06:10:19;;;;;;;9.23;1.45;;;20.40;75.20;;;;;;7842214;28;20581;-65
2021/12/20 06:14:04;;;;;;;9.38;1.40;;;20.30;75.20;;;;;;7842605;28;20194;-66
2021/12/20 06:17:50;;;;;;;8.38;1.30;;;20.30;75.30;;;;;;7842371;28;20173;-64
2021/12/20 06:21:35;;;;;;;7.28;1.27;;;20.30;75.20;;;;;;7842120;28;20204;-64
2021/12/20 06:25:21;;;;;;;5.05;1.27;;;20.30;75.10;;;;;;7842055;28;20214;-64
2021/12/20 06:29:06;;;;;;;10.40;1.00;;;20.20;75.20;;;;;;7841687;28;20205;-64
2021/12/20 06:32:52;;;;;;;2.97;0.80;;;20.20;75.20;;;;;;7841840;28;20648;-64
2021/12/20 06:36:37;;;;;;;6.47;1.17;;;20.20;75.10;;;;;;7841923;28;20232;-64
2021/12/20 06:40:23;;;;;;;85.25;12.60;;;20.20;74.70;;;;;;7841733;28;20224;-68
2021/12/20 06:44:08;;;;;;;46.80;7.70;;;20.10;69.60;;;;;;7841647;28;20289;-67
2021/12/20 06:47:54;;;;;;;45.75;5.78;;;19.90;69.40;;;;;;7847941;28;20191;-63
2021/12/20 06:51:43;;;;;;;58.65;5.53;;;19.80;72.10;;;;;;7842550;28;20541;-65
2021/12/20 06:55:29;;;;;;;58.83;5.47;;;19.70;73.10;;;;;;7824514;28;20207;-65
2021/12/20 06:59:14;;;;;;;41.25;5.93;;;19.80;74.90;;;;;;7827945;28;20281;-65
2021/12/20 07:03:00;;;;;;;58.95;5.60;;;19.80;75.00;;;;;;7810808;28;20258;-65
2021/12/20 07:06:46;;;;;;;44.25;5.53;;;19.90;74.80;;;;;;7825150;28;20292;-65
2021/12/20 07:10:31;;;;;;;46.15;5.03;;;20.00;74.80;;;;;;7840720;28;20207;-65
2021/12/20 07:14:17;;;;;;;53.67;6.30;;;20.00;75.10;;;;;;7840187;28;20654;-65
2021/12/20 07:18:03;;;;;;;39.85;4.95;;;19.90;75.20;;;;;;7840566;28;20178;-65
2021/12/20 07:21:49;;;;;;;40.45;5.15;;;20.00;75.10;;;;;;7840828;28;20761;-65
2021/12/20 07:25:35;;;;;;;40.45;4.55;;;20.00;75.20;;;;;;7840310;28;20210;-65
2021/12/20 07:29:20;;;;;;;41.63;4.70;;;20.00;75.20;;;;;;7839980;28;20209;-65
2021/12/20 07:33:07;;;;;;;31.13;4.05;;;20.00;75.30;;;;;;7840270;28;20235;-65
2021/12/20 07:36:53;;;;;;;25.00;3.33;;;19.90;75.30;;;;;;7840113;28;20184;-65
2021/12/20 07:40:44;;;;;;;35.75;4.00;;;19.90;75.30;;;;;;7839719;28;20201;-65
2021/12/20 07:44:29;;;;;;;20.45;3.85;;;19.90;75.50;;;;;;7839837;28;20637;-65
2021/12/20 07:48:16;;;;;;;25.95;4.00;;;19.90;75.50;;;;;;7837019;28;20196;-65
2021/12/20 07:52:03;;;;;;;21.35;3.88;;;19.90;75.50;;;;;;7839375;28;20309;-65
2021/12/20 07:55:48;;;;;;;18.63;3.58;;;19.90;75.50;;;;;;7839830;28;20181;-64
2021/12/20 07:59:34;;;;;;;24.55;3.33;;;19.90;75.50;;;;;;7836626;28;20280;-65
2021/12/20 08:03:20;;;;;;;16.90;3.30;;;19.90;75.50;;;;;;7839040;28;20229;-65
2021/12/20 08:07:05;;;;;;;15.73;3.67;;;19.80;75.50;;;;;;7839301;28;20256;-65
2021/12/20 08:10:51;;;;;;;14.35;3.03;;;19.80;75.50;;;;;;7838812;28;20198;-65
2021/12/20 08:14:36;;;;;;;24.42;3.75;;;19.90;75.50;;;;;;7839015;28;20243;-65
2021/12/20 08:18:22;;;;;;;8.07;2.90;;;19.80;75.50;;;;;;7838506;28;20194;-65
2021/12/20 08:22:07;;;;;;;12.45;3.42;;;19.80;75.50;;;;;;7838905;28;20696;-65
2021/12/20 08:25:53;;;;;;;16.02;3.22;;;19.80;75.60;;;;;;7838007;28;20296;-65
2021/12/20 08:29:38;;;;;;;9.90;2.28;;;19.80;75.70;;;;;;7837985;28;20214;-65
2021/12/20 08:33:24;;;;;;;13.10;2.80;;;19.70;75.50;;;;;;7838619;28;20236;-65
2021/12/20 08:37:09;;;;;;;17.50;2.85;;;19.70;75.70;;;;;;7838490;28;20186;-65
2021/12/20 08:40:56;;;;;;;14.65;2.90;;;19.70;75.70;;;;;;7837996;28;20256;-65
2021/12/20 08:44:41;;;;;;;12.27;2.67;;;19.70;75.70;;;;;;7838249;28;20210;-65
2021/12/20 08:48:30;;;;;;;11.20;2.50;;;19.70;75.70;;;;;;7837891;28;20853;-65
2021/12/20 08:52:16;;;;;;;11.55;2.40;;;19.70;75.70;;;;;;7838153;28;20166;-65
2021/12/20 08:56:02;;;;;;;10.88;2.53;;;19.70;75.80;;;;;;7838095;28;20186;-65
2021/12/20 08:59:48;;;;;;;10.40;2.00;;;19.60;75.70;;;;;;7837761;28;20201;-65
2021/12/20 09:03:34;;;;;;;7.88;2.47;;;19.60;75.70;;;;;;7838053;28;20216;-66
2021/12/20 09:07:19;;;;;;;14.77;2.67;;;19.60;75.50;;;;;;7837860;28;20257;-65
2021/12/20 09:11:05;;;;;;;11.88;2.50;;;19.60;75.60;;;;;;7837749;28;20668;-65
2021/12/20 09:14:51;;;;;;;11.10;2.10;;;19.60;75.60;;;;;;7838257;28;20240;-65
2021/12/20 09:18:36;;;;;;;8.82;2.10;;;19.60;75.40;;;;;;7837459;28;20284;-65
2021/12/20 09:22:27;;;;;;;11.45;2.30;;;19.60;75.30;;;;;;7838329;28;20201;-65
2021/12/20 09:26:12;;;;;;;7.07;2.40;;;19.60;75.10;;;;;;7837514;28;20585;-65
2021/12/20 09:29:58;;;;;;;9.80;2.03;;;19.50;75.20;;;;;;7837046;28;20799;-65
2021/12/20 09:33:43;;;;;;;12.43;2.05;;;19.50;76.30;;;;;;7837581;28;20205;-65
2021/12/20 09:37:29;;;;;;;9.05;2.30;;;19.60;75.60;;;;;;7839190;28;20549;-64
2021/12/20 09:41:27;;;;;;;7.78;1.90;;;19.50;75.70;;;;;;7843666;28;20202;-65
2021/12/20 09:45:15;;;;;;;7.03;2.08;;;19.50;75.70;;;;;;7843212;28;20193;-65
2021/12/20 09:49:02;;;;;;;5.00;1.85;;;19.50;75.70;;;;;;7843123;28;20216;-65
2021/12/20 09:52:47;;;;;;;8.77;1.92;;;19.50;75.70;;;;;;7843274;28;20206;-65
2021/12/20 09:56:34;;;;;;;8.98;2.08;;;19.40;75.60;;;;;;7842874;28;20177;-65
2021/12/20 10:00:21;;;;;;;9.13;1.90;;;19.50;75.70;;;;;;7840320;28;20566;-65
2021/12/20 10:04:07;;;;;;;5.70;1.73;;;19.50;75.70;;;;;;7843115;28;20694;-65
2021/12/20 10:07:53;;;;;;;4.03;1.85;;;19.50;75.70;;;;;;7842412;28;20560;-65
2021/12/20 10:11:39;;;;;;;7.40;2.28;;;19.50;75.70;;;;;;7842671;28;20236;-65
2021/12/20 10:15:32;;;;;;;7.85;2.15;;;19.50;75.20;;;;;;7842682;28;20206;-65
2021/12/20 10:19:29;;;;;;;4.20;2.00;;;19.50;75.00;;;;;;7842355;28;20297;-65
2021/12/20 10:23:17;;;;;;;4.78;1.85;;;19.50;74.40;;;;;;7842201;28;20185;-65
2021/12/20 10:27:04;;;;;;;6.13;2.50;;;19.50;74.80;;;;;;7842715;28;20600;-65
2021/12/20 10:30:58;;;;;;;7.15;1.80;;;19.40;74.20;;;;;;7841889;28;20778;-65
2021/12/20 10:34:45;;;;;;;6.07;1.55;;;19.50;74.20;;;;;;7841922;28;20265;-65
2021/12/20 10:38:40;;;;;;;5.00;1.98;;;19.40;74.50;;;;;;7841592;28;20198;-65
2021/12/20 10:42:27;;;;;;;5.28;2.25;;;19.40;73.80;;;;;;7841462;28;20182;-66
2021/12/20 10:46:18;;;;;;;7.45;2.53;;;19.50;73.80;;;;;;7840438;28;20202;-64
2021/12/20 10:50:28;;;;;;;7.57;1.98;;;19.40;73.40;;;;;;7867916;28;20197;-65
2021/12/20 10:54:18;;;;;;;8.80;2.03;;;19.40;72.80;;;;;;7871986;28;20173;-64
2021/12/20 10:58:29;;;;;;;6.07;2.60;;;19.50;72.80;;;;;;7872090;28;20303;-65
2021/12/20 11:10:03;;;;;;;5.43;2.10;;;19.40;72.20;;;;;;7871861;28;20192;-66
2021/12/20 11:13:49;;;;;;;7.05;2.30;;;19.40;72.50;;;;;;7871920;28;20251;-65
2021/12/20 11:17:36;;;;;;;6.18;1.92;;;19.40;72.70;;;;;;7871549;28;20338;-65
2021/12/20 11:21:21;;;;;;;4.10;2.10;;;19.40;72.50;;;;;;7871564;28;20670;-65
2021/12/20 11:25:11;;;;;;;6.50;2.30;;;19.40;72.50;;;;;;7871423;28;20638;-65
2021/12/20 11:28:57;;;;;;;6.38;2.22;;;19.40;72.30;;;;;;7870821;28;20651;-65
2021/12/20 11:32:44;;;;;;;9.63;2.80;;;19.40;72.20;;;;;;7871293;28;20260;-65
2021/12/20 11:36:30;;;;;;;6.55;2.72;;;19.40;72.10;;;;;;7871164;28;20181;-65
2021/12/20 11:40:18;;;;;;;9.55;3.28;;;19.40;72.00;;;;;;7870566;28;20292;-65
2021/12/20 11:44:06;;;;;;;6.25;3.05;;;19.40;72.00;;;;;;7870861;28;20739;-65
2021/12/20 11:48:05;;;;;;;9.20;3.58;;;19.40;72.30;;;;;;7870709;28;20177;-65
2021/12/20 11:51:56;;;;;;;11.20;3.63;;;19.40;72.00;;;;;;7870293;28;20237;-65
2021/12/20 11:55:47;;;;;;;9.57;3.28;;;19.40;72.00;;;;;;7870744;28;20181;-65
2021/12/20 11:59:51;;;;;;;10.82;3.35;;;19.40;72.00;;;;;;7870119;28;20198;-65
2021/12/20 12:03:39;;;;;;;13.05;3.63;;;19.40;72.00;;;;;;7868808;28;20185;-65
2021/12/20 12:07:26;;;;;;;11.70;3.15;;;19.40;72.00;;;;;;7870377;28;20169;-65
2021/12/20 12:11:12;;;;;;;5.95;3.15;;;19.40;71.60;;;;;;7870199;28;20181;-65
2021/12/20 12:15:11;;;;;;;10.88;3.50;;;19.40;71.70;;;;;;7869881;28;20184;-65
2021/12/20 12:18:59;;;;;;;7.10;2.80;;;19.40;71.70;;;;;;7869582;28;20697;-64
2021/12/20 12:22:46;;;;;;;8.63;3.33;;;19.40;71.60;;;;;;7869664;28;20812;-64
2021/12/20 12:26:35;;;;;;;6.47;2.60;;;19.40;71.50;;;;;;7869838;28;20266;-65
2021/12/20 12:30:23;;;;;;;5.03;2.55;;;19.40;71.40;;;;;;7869116;28;20214;-64
2021/12/20 12:34:10;;;;;;;7.05;2.80;;;19.50;71.30;;;;;;7869669;28;20176;-65
2021/12/20 12:38:20;;;;;;;6.63;2.33;;;19.50;71.50;;;;;;7869382;28;20176;-65
2021/12/20 12:42:05;;;;;;;6.03;2.05;;;19.50;71.40;;;;;;7869387;28;20185;-65
2021/12/20 12:45:54;;;;;;;6.55;2.40;;;19.50;71.20;;;;;;7869359;28;20215;-65
2021/12/20 12:49:45;;;;;;;4.03;2.20;;;19.50;71.40;;;;;;7868985;28;20197;-65
2021/12/20 12:53:56;;;;;;;5.57;3.00;;;19.50;71.20;;;;;;7869060;28;20561;-65
2021/12/20 12:57:43;;;;;;;5.78;3.10;;;19.50;71.10;;;;;;7864106;28;20317;-65
2021/12/20 13:01:29;;;;;;;5.88;3.50;;;19.50;71.00;;;;;;7869231;28;20201;-65
2021/12/20 13:05:23;;;;;;;7.30;3.22;;;19.60;71.10;;;;;;7868810;28;20254;-65
2021/12/20 13:09:09;;;;;;;8.43;3.20;;;19.60;71.00;;;;;;7868862;28;20193;-65
2021/12/20 13:12:59;;;;;;;8.40;3.78;;;19.60;70.90;;;;;;7871851;28;20184;-65
2021/12/20 13:16:58;;;;;;;7.72;3.38;;;19.60;70.80;;;;;;7875398;28;20173;-65
2021/12/20 13:20:58;;;;;;;6.47;3.30;;;19.70;70.90;;;;;;7874867;28;20208;-65
2021/12/20 13:24:44;;;;;;;10.50;3.78;;;19.80;70.90;;;;;;7875123;28;20197;-66
2021/12/20 13:28:35;;;;;;;8.00;3.17;;;19.80;70.90;;;;;;7874659;28;20201;-65
2021/12/20 13:32:21;;;;;;;8.13;3.10;;;20.00;70.70;;;;;;7874849;28;20184;-65
2021/12/20 13:36:13;;;;;;;6.95;2.97;;;20.10;70.50;;;;;;7874900;28;20177;-65
2021/12/20 13:39:58;;;;;;;6.72;2.75;;;20.10;70.50;;;;;;7874525;28;20190;-65
2021/12/20 13:43:53;;;;;;;5.63;3.05;;;20.20;70.30;;;;;;7874732;28;20226;-65
2021/12/20 13:47:40;;;;;;;7.97;2.80;;;20.20;70.20;;;;;;7874774;28;20191;-65
2021/12/20 13:51:49;;;;;;;8.90;3.30;;;20.30;70.10;;;;;;7874949;28;20201;-65
2021/12/20 13:55:35;;;;;;;6.72;3.13;;;20.30;70.00;;;;;;7874203;28;20199;-65
2021/12/20 13:59:23;;;;;;;8.15;3.17;;;20.40;69.80;;;;;;7873862;28;20217;-65
2021/12/20 14:03:08;;;;;;;8.05;3.30;;;20.40;69.60;;;;;;7871499;28;20240;-66
2021/12/20 14:06:54;;;;;;;8.20;4.78;;;20.50;69.40;;;;;;7873663;28;20208;-65
2021/12/20 14:10:40;;;;;;;9.02;5.55;;;20.60;69.40;;;;;;7873409;28;20215;-65
2021/12/20 14:14:26;;;;;;;9.18;5.70;;;20.60;69.40;;;;;;7873942;28;20169;-65
2021/12/20 14:18:19;;;;;;;10.48;6.65;;;20.60;69.40;;;;;;7873226;28;20203;-65
2021/12/20 14:22:04;;;;;;;10.35;6.53;;;20.60;69.20;;;;;;7873239;28;20181;-66
2021/12/20 14:26:16;;;;;;;21.33;6.80;;;20.70;69.10;;;;;;7872276;28;20246;-64
2021/12/20 14:30:18;;;;;;;15.18;6.15;;;20.70;69.20;;;;;;7859573;28;20273;-65
2021/12/20 14:34:06;;;;;;;20.42;7.80;;;20.80;69.00;;;;;;7872956;28;20638;-64
2021/12/20 14:37:53;;;;;;;14.30;8.45;;;20.80;68.60;;;;;;7872798;28;20692;-65
2021/12/20 14:41:39;;;;;;;18.40;8.48;;;20.80;68.70;;;;;;7872935;28;20220;-64
2021/12/20 14:45:26;;;;;;;20.90;10.18;;;20.70;68.50;;;;;;7872557;28;20219;-65
2021/12/20 14:49:20;;;;;;;25.17;11.32;;;20.70;68.50;;;;;;7872303;28;20224;-65
2021/12/20 14:53:26;;;;;;;20.17;10.98;;;20.70;68.50;;;;;;7872594;28;20170;-65
2021/12/20 14:57:21;;;;;;;23.35;12.00;;;20.60;68.40;;;;;;7872356;28;20178;-65
2021/12/20 15:01:06;;;;;;;29.83;10.68;;;20.60;68.20;;;;;;7871985;28;20641;-64
2021/12/20 15:04:53;;;;;;;20.38;10.27;;;20.60;68.40;;;;;;7871989;28;20197;-65
2021/12/20 15:08:38;;;;;;;14.68;9.80;;;20.70;68.40;;;;;;7871864;28;20193;-64
2021/12/20 15:12:24;;;;;;;17.10;9.00;;;20.70;68.20;;;;;;7871832;28;20170;-65
2021/12/20 15:16:09;;;;;;;14.50;8.43;;;20.80;68.10;;;;;;7871917;28;20546;-65
2021/12/20 15:19:56;;;;;;;15.80;8.63;;;20.80;67.90;;;;;;7871399;28;20628;-65
2021/12/20 15:23:41;;;;;;;15.57;8.25;;;20.90;68.10;;;;;;7871373;28;20169;-65
2021/12/20 15:27:27;;;;;;;17.83;7.82;;;21.00;68.10;;;;;;7871385;28;20169;-64
2021/12/20 15:31:12;;;;;;;10.68;6.75;;;21.10;68.00;;;;;;7871166;28;20230;-65
2021/12/20 15:34:58;;;;;;;13.18;6.47;;;21.20;68.00;;;;;;7870857;28;20265;-65
2021/12/20 15:38:43;;;;;;;9.93;6.57;;;21.20;68.00;;;;;;7870879;28;20649;-65
2021/12/20 15:42:32;;;;;;;9.57;5.70;;;21.30;67.70;;;;;;7871103;28;20234;-65
2021/12/20 15:46:19;;;;;;;10.20;5.95;;;21.40;67.60;;;;;;7871026;28;20283;-65
2021/12/20 15:50:05;;;;;;;8.85;5.00;;;21.40;67.80;;;;;;7870558;28;20751;-65
2021/12/20 15:53:51;;;;;;;7.97;5.28;;;21.50;67.50;;;;;;7932490;22;20236;-70
2021/12/20 15:57:37;;;;;;;9.40;4.95;;;21.60;67.50;;;;;;7901506;28;20198;-70
2021/12/20 16:01:23;;;;;;;13.40;5.60;;;21.60;67.60;;;;;;7901869;28;20201;-70
2021/12/20 16:05:09;;;;;;;10.68;4.63;;;21.60;67.20;;;;;;7901912;28;20204;-68
2021/12/20 16:08:55;;;;;;;13.27;5.50;;;21.70;66.80;;;;;;7901612;28;20203;-70
2021/12/20 16:12:40;;;;;;;13.43;5.00;;;21.60;65.40;;;;;;7900257;28;20197;-70
2021/12/20 16:16:25;;;;;;;10.52;5.25;;;21.70;66.80;;;;;;7901429;28;20225;-70
2021/12/20 16:20:11;;;;;;;13.43;4.80;;;21.90;67.10;;;;;;7901230;28;20179;-70
2021/12/20 16:23:57;;;;;;;8.65;4.40;;;22.00;66.70;;;;;;7901658;28;20242;-69
2021/12/20 16:27:45;;;;;;;9.82;5.57;;;22.20;67.00;;;;;;7899662;28;20199;-69
2021/12/20 16:31:32;;;;;;;10.45;4.70;;;22.40;66.80;;;;;;7901008;28;20697;-69
2021/12/20 16:35:20;;;;;;;13.30;4.95;;;22.50;66.60;;;;;;7901051;28;20183;-69
2021/12/20 16:39:06;;;;;;;11.70;4.40;;;22.60;66.10;;;;;;7887890;28;20276;-68
2021/12/20 16:42:54;;;;;;;16.40;4.65;;;22.60;66.10;;;;;;7869498;28;20746;-69
2021/12/20 16:46:43;;;;;;;16.38;4.80;;;22.50;65.20;;;;;;7868463;28;20286;-70
2021/12/20 16:50:29;;;;;;;12.82;4.88;;;22.50;65.50;;;;;;7869205;28;20169;-70
2021/12/20 16:54:14;;;;;;;8.30;4.20;;;22.60;65.90;;;;;;7869265;28;20216;-69
2021/12/20 16:57:59;;;;;;;10.85;4.45;;;22.70;66.70;;;;;;7868989;28;20185;-67
2021/12/20 17:01:45;;;;;;;9.30;4.75;;;22.90;67.70;;;;;;7865705;28;20235;-70
2021/12/20 17:05:45;;;;;;;10.60;4.82;;;22.90;65.80;;;;;;7869128;28;20205;-70
2021/12/20 17:09:31;;;;;;;9.32;4.93;;;23.10;67.30;;;;;;7868944;28;20541;-69
2021/12/20 17:13:20;;;;;;;11.57;4.85;;;23.30;68.40;;;;;;7869011;28;20196;-68
2021/12/20 17:17:07;;;;;;;8.15;4.20;;;23.60;67.40;;;;;;7869008;28;20173;-69
2021/12/20 17:20:52;;;;;;;12.75;4.88;;;23.80;67.20;;;;;;7868829;28;20666;-69
2021/12/20 17:24:38;;;;;;;16.80;6.63;;;24.00;67.10;;;;;;7868891;28;20559;-69
2021/12/20 17:28:24;;;;;;;20.80;7.45;;;24.10;66.80;;;;;;7868552;28;20261;-69
2021/12/20 17:32:09;;;;;;;11.40;4.90;;;24.20;66.40;;;;;;7868859;28;20205;-68
2021/12/20 17:35:55;;;;;;;16.67;5.13;;;24.20;66.50;;;;;;7869217;28;20256;-69
2021/12/20 17:39:40;;;;;;;7.30;4.70;;;24.30;66.40;;;;;;7868695;28;20178;-67
2021/12/20 17:43:27;;;;;;;16.77;4.85;;;24.20;66.40;;;;;;7868767;28;20204;-70
2021/12/20 17:47:12;;;;;;;11.07;4.40;;;24.20;66.60;;;;;;7868339;28;20292;-70
2021/12/20 17:50:58;;;;;;;13.50;4.40;;;24.10;66.80;;;;;;7863289;28;20209;-70
2021/12/20 17:54:44;;;;;;;13.10;5.47;;;24.10;67.00;;;;;;7868534;28;20650;-69
2021/12/20 17:58:30;;;;;;;12.80;4.57;;;24.00;67.00;;;;;;7869898;28;20188;-64
2021/12/20 18:02:22;;;;;;;13.70;5.70;;;23.90;68.10;;;;;;7872171;28;20369;-70
2021/12/20 18:06:07;;;;;;;19.42;7.18;;;23.90;67.10;;;;;;7872025;28;20430;-69
2021/12/20 18:09:53;;;;;;;17.63;5.47;;;23.60;66.30;;;;;;7872870;28;20176;-69
2021/12/20 18:13:39;;;;;;;19.48;6.25;;;23.50;68.60;;;;;;7872709;28;20243;-66
2021/12/20 18:17:25;;;;;;;28.13;7.05;;;23.60;67.30;;;;;;7870144;28;20184;-70
2021/12/20 18:21:10;;;;;;;17.17;6.97;;;23.60;66.50;;;;;;7872244;28;20221;-70
2021/12/20 18:24:56;;;;;;;24.80;9.25;;;23.60;66.90;;;;;;7872182;28;20201;-69
2021/12/20 18:28:41;;;;;;;17.42;6.80;;;23.70;67.00;;;;;;7872202;28;20260;-70
2021/12/20 18:32:27;;;;;;;14.32;6.03;;;23.70;67.50;;;;;;7871074;28;20193;-70
2021/12/20 18:36:13;;;;;;;16.90;5.53;;;23.90;68.30;;;;;;7841104;28;20209;-70
2021/12/20 18:39:58;;;;;;;13.23;5.78;;;24.10;68.20;;;;;;7840918;28;20174;-70
2021/12/20 18:43:44;;;;;;;13.73;5.30;;;24.40;67.90;;;;;;7853534;28;20213;-71
2021/12/20 18:47:30;;;;;;;14.15;5.43;;;24.70;67.60;;;;;;7868368;28;20182;-70
2021/12/20 18:51:16;;;;;;;14.90;5.15;;;24.90;67.40;;;;;;7870858;28;20205;-70
2021/12/20 18:55:03;;;;;;;11.57;5.15;;;25.10;67.30;;;;;;7870440;28;20193;-70
2021/12/20 18:58:49;;;;;;;10.18;5.72;;;25.30;67.20;;;;;;7870294;28;20188;-70
2021/12/20 19:02:36;;;;;;;7.72;4.80;;;25.50;67.10;;;;;;7867792;28;20701;-71
2021/12/20 19:06:23;;;;;;;10.70;5.60;;;25.70;67.20;;;;;;7869828;28;20353;-70
2021/12/20 19:10:14;;;;;;;11.30;4.45;;;25.80;67.00;;;;;;7869642;28;20185;-70
2021/12/20 19:14:07;;;;;;;7.80;4.13;;;25.90;67.00;;;;;;7870865;28;20806;-70
2021/12/20 19:17:53;;;;;;;10.02;4.95;;;25.90;67.00;;;;;;7870675;28;20181;-70
2021/12/20 19:21:39;;;;;;;11.60;4.45;;;25.90;67.10;;;;;;7870866;28;20278;-70
2021/12/20 19:25:30;;;;;;;10.45;4.82;;;25.80;67.30;;;;;;7870084;28;20244;-70
2021/12/20 19:29:15;;;;;;;7.68;4.60;;;25.70;67.40;;;;;;7870470;28;20165;-70
2021/12/20 19:33:01;;;;;;;10.10;4.80;;;25.70;67.60;;;;;;7869062;28;20467;-73
2021/12/20 19:36:49;;;;;;;7.28;3.88;;;25.50;68.20;;;;;;7869800;28;20184;-73
2021/12/20 19:40:35;;;;;;;8.20;4.25;;;25.40;68.30;;;;;;7870686;28;20717;-73
2021/12/20 19:44:21;;;;;;;8.13;4.07;;;25.40;68.30;;;;;;7869987;28;20674;-73
2021/12/20 19:48:07;;;;;;;8.45;4.35;;;25.30;68.30;;;;;;7868657;28;20185;-73
2021/12/20 19:51:56;;;;;;;9.70;4.03;;;25.30;68.50;;;;;;7858893;28;20279;-74
2021/12/20 19:55:44;;;;;;;7.80;3.83;;;25.20;68.40;;;;;;7855917;28;20193;-71
2021/12/20 19:59:31;;;;;;;18.13;4.07;;;25.10;68.60;;;;;;7846941;28;20183;-71